»·PEaware :: N7375Q 0ID2-KGTF

N7375Q :: 0ID2-KGTF

FLIGHT INFORMATION

Flight Status: Arrived
Operator: Privately registered:
United States
More flights under this callsign
Pilot: Ion I. (24133)
Aircraft: SOCATA TBM-900
(TBM9)
More flights by this aircraft type
Origin: 0ID2 Flying Joseph Ranch Airport
United States
Destination: KGTF Great Falls Intl
United States
More flights between these airports :: More routes between these airports
Route: LKT V113 HLN HOXEK
File this flight plan on PilotEdge
Remarks:
Altitude:
(Current/Filed)
29,000ft
Speed:
(Current/Filed)
300kts
Departed: 14-Aug-20 12:24 PM
Arrived: 14-Aug-20 01:17 PM
Distance/Time
Traveled:
209nm/0:53
Distance/Time
To Go:
Arrived

Flight Plot

Page will automatically refresh every two minutes.

Flight plan parsing failed; only flown route is shown


Map Options




Map Legend


Flown Route
Filed Route
Departure Airport
Arrival Airport
Navaid (VOR, NDB)
Fix

Horizontal Profiles

Position Reports

Time Latitude Longitude Heading Altitude Ground
Speed
14-Aug-20 12:16 44.440601 -113.769981 132 5616ft 0kts
14-Aug-20 12:17 44.440601 -113.769981 132 5616ft 0kts
14-Aug-20 12:18 44.440601 -113.769981 132 5616ft 0kts
14-Aug-20 12:19 44.440601 -113.769981 132 5616ft 0kts
14-Aug-20 12:20 44.440601 -113.769981 132 5616ft 0kts
14-Aug-20 12:21 44.440460 -113.769600 64 5616ft 3kts
14-Aug-20 12:22 44.439868 -113.767505 125 5622ft 13kts
14-Aug-20 12:23 44.438053 -113.763405 178 5634ft 7kts
14-Aug-20 12:24 44.442764 -113.772971 308 5616ft 116kts
14-Aug-20 12:25 44.473009 -113.795534 348 7591ft 135kts
14-Aug-20 12:26 44.510106 -113.808902 337 9919ft 141kts
14-Aug-20 12:27 44.545962 -113.828022 333 12202ft 141kts
14-Aug-20 12:28 44.584855 -113.848867 333 14300ft 159kts
14-Aug-20 12:28 44.620425 -113.867917 332 16039ft 174kts
14-Aug-20 12:30 44.675297 -113.897324 332 18439ft 185kts
14-Aug-20 12:31 44.723863 -113.923424 332 20444ft 192kts
14-Aug-20 12:32 44.774325 -113.950573 332 22448ft 198kts
14-Aug-20 12:32 44.817387 -113.973781 332 24113ft 202kts
14-Aug-20 12:33 44.869998 -114.002214 332 26124ft 207kts
14-Aug-20 12:34 44.923910 -114.031358 332 28123ft 210kts
14-Aug-20 12:36 44.989926 -114.067227 333 29290ft 241kts
14-Aug-20 12:36 45.050082 -114.055822 23 29256ft 297kts
14-Aug-20 12:38 45.122186 -113.954263 35 29255ft 321kts
14-Aug-20 12:38 45.177710 -113.881893 35 29251ft 327kts
14-Aug-20 12:39 45.245097 -113.794158 34 29250ft 330kts
14-Aug-20 12:40 45.312793 -113.705763 35 29250ft 331kts
14-Aug-20 12:41 45.380591 -113.616922 35 29250ft 332kts
14-Aug-20 12:42 45.448427 -113.527732 34 29250ft 332kts
14-Aug-20 12:43 45.516160 -113.438365 34 29258ft 332kts
14-Aug-20 12:44 45.583521 -113.349121 35 29266ft 332kts
14-Aug-20 12:45 45.651478 -113.258825 35 29262ft 332kts
14-Aug-20 12:46 45.719079 -113.168737 35 29262ft 332kts
14-Aug-20 12:47 45.786574 -113.078471 35 29266ft 332kts
14-Aug-20 12:48 45.855247 -112.986389 36 28120ft 352kts
14-Aug-20 12:49 45.928024 -112.888332 36 26134ft 364kts
14-Aug-20 12:50 46.001921 -112.788363 37 24321ft 361kts
14-Aug-20 12:51 46.071100 -112.694231 36 24314ft 330kts
14-Aug-20 12:52 46.136865 -112.604441 36 24322ft 321kts
14-Aug-20 12:53 46.201248 -112.516209 35 24324ft 319kts
14-Aug-20 12:54 46.265604 -112.427733 35 24320ft 318kts
14-Aug-20 12:55 46.329702 -112.339301 36 24283ft 319kts
14-Aug-20 12:56 46.394869 -112.249152 36 23482ft 338kts
14-Aug-20 12:57 46.470744 -112.167505 23 21498ft 341kts
14-Aug-20 12:58 46.552884 -112.099529 23 19495ft 340kts
14-Aug-20 12:59 46.633905 -112.032358 23 17476ft 332kts
14-Aug-20 13:00 46.712467 -111.967010 24 15466ft 323kts
14-Aug-20 13:01 46.789597 -111.902657 24 13653ft 311kts
14-Aug-20 13:02 46.862722 -111.841403 24 12640ft 299kts
14-Aug-20 13:03 46.934554 -111.781082 25 11633ft 296kts
14-Aug-20 13:04 47.005745 -111.721091 26 10630ft 292kts
14-Aug-20 13:05 47.075081 -111.662419 26 9978ft 279kts
14-Aug-20 13:06 47.133939 -111.590248 49 9283ft 291kts
14-Aug-20 13:07 47.185440 -111.496410 49 7970ft 290kts
14-Aug-20 13:08 47.233607 -111.408567 48 7967ft 268kts
14-Aug-20 13:09 47.291192 -111.373022 355 7280ft 211kts
14-Aug-20 13:10 47.337350 -111.373029 355 6450ft 141kts
14-Aug-20 13:11 47.370944 -111.372731 10 5740ft 110kts
14-Aug-20 13:12 47.395360 -111.370583 347 5598ft 68kts
14-Aug-20 13:13 47.416532 -111.372348 352 4957ft 101kts
14-Aug-20 13:14 47.443741 -111.372228 348 4421ft 96kts
14-Aug-20 13:15 47.468357 -111.372739 344 3916ft 85kts
14-Aug-20 13:16 47.488361 -111.372912 358 3655ft 20kts
14-Aug-20 13:17 47.493601 -111.372174 123 3635ft 0kts
14-Aug-20 13:18 47.489663 -111.365800 134 3655ft 23kts
14-Aug-20 13:19 47.487420 -111.362400 134 3660ft 13kts
14-Aug-20 13:20 47.485439 -111.355668 82 3660ft 14kts
14-Aug-20 13:21 47.485572 -111.355294 358 3659ft 0kts
14-Aug-20 13:22 47.485572 -111.355294 358 3659ft 0kts
14-Aug-20 13:23 47.485572 -111.355294 359 3658ft 0kts

Navigation Log

Ident Type
Flight plan parsing failed, navigation log unavailable